Time;durP1;ratioP1;P1;durP2;ratioP2;P2;SDS_P1;SDS_P2;PMS_P1;PMS_P2;Temp;Humidity;BMP_temperature;BMP_pressure;BME280_temperature;BME280_humidity;BME280_pressure;Samples;Min_cycle;Max_cycle;Signal;HPM_P1;HPM_P2
2022/07/06 00:00:18;;;;;;;3.00;1.67;;;;;;;;;;4990637;28;20673;-73
2022/07/06 00:02:46;;;;;;;2.73;1.60;;;;;;;;;;4992823;28;20205;-73
2022/07/06 00:05:14;;;;;;;3.73;1.80;;;;;;;;;;5000394;28;20712;-73
2022/07/06 00:07:43;;;;;;;5.20;1.73;;;;;;;;;;4993717;28;20234;-73
2022/07/06 00:10:13;;;;;;;4.03;1.50;;;;;;;;;;4988997;28;20255;-73
2022/07/06 00:12:42;;;;;;;3.80;1.67;;;;;;;;;;4979107;28;20210;-73
2022/07/06 00:15:10;;;;;;;2.37;1.90;;;;;;;;;;4993997;28;20229;-73
2022/07/06 00:17:39;;;;;;;3.30;1.60;;;;;;;;;;4988330;28;20209;-73
2022/07/06 00:20:08;;;;;;;4.17;1.80;;;;;;;;;;4992624;28;20227;-73
2022/07/06 00:22:36;;;;;;;2.40;1.50;;;;;;;;;;4993452;28;20586;-73
2022/07/06 00:25:05;;;;;;;2.60;1.50;;;;;;;;;;4992983;28;20571;-73
2022/07/06 00:27:35;;;;;;;4.87;1.93;;;;;;;;;;4987781;28;20226;-72
2022/07/06 00:30:03;;;;;;;4.30;1.70;;;;;;;;;;4983832;28;20209;-73
2022/07/06 00:32:32;;;;;;;4.13;1.53;;;;;;;;;;4993295;28;20670;-73
2022/07/06 00:35:00;;;;;;;3.47;1.70;;;;;;;;;;4993756;28;20231;-73
2022/07/06 00:37:29;;;;;;;4.67;1.90;;;;;;;;;;4993501;28;20209;-73
2022/07/06 00:39:57;;;;;;;2.20;1.50;;;;;;;;;;4993522;28;20209;-73
2022/07/06 00:42:25;;;;;;;4.57;1.80;;;;;;;;;;4995860;28;20213;-73
2022/07/06 00:44:55;;;;;;;3.33;1.63;;;;;;;;;;4996742;28;20252;-73
2022/07/06 00:47:24;;;;;;;2.60;1.40;;;;;;;;;;4993639;28;20213;-73
2022/07/06 00:52:38;;;;;;;3.90;1.50;;;;;;;;;;4997231;28;20678;-73
2022/07/06 00:55:07;;;;;;;4.47;1.50;;;;;;;;;;4996260;28;20760;-73
2022/07/06 00:57:35;;;;;;;5.30;1.80;;;;;;;;;;4993731;28;20224;-73
2022/07/06 01:00:06;;;;;;;7.40;3.20;;;;;;;;;;4995445;28;20201;-73
2022/07/06 01:02:36;;;;;;;4.73;2.83;;;;;;;;;;4993898;28;20209;-73
2022/07/06 01:05:06;;;;;;;6.13;3.20;;;;;;;;;;4991220;28;20269;-73
2022/07/06 01:07:35;;;;;;;5.20;2.60;;;;;;;;;;4996439;28;20225;-73
2022/07/06 01:10:03;;;;;;;4.00;1.80;;;;;;;;;;4995330;28;20204;-73
2022/07/06 01:12:32;;;;;;;2.90;1.80;;;;;;;;;;4996203;28;20677;-72
2022/07/06 01:15:00;;;;;;;3.73;1.50;;;;;;;;;;4995773;28;20279;-73
2022/07/06 01:17:31;;;;;;;2.40;1.60;;;;;;;;;;4994749;28;20208;-73
2022/07/06 01:19:59;;;;;;;2.27;1.70;;;;;;;;;;4996713;28;20212;-73
2022/07/06 01:22:29;;;;;;;6.17;2.43;;;;;;;;;;4997031;28;20252;-72
2022/07/06 01:24:57;;;;;;;4.47;1.93;;;;;;;;;;4996441;28;20224;-73
2022/07/06 01:27:26;;;;;;;3.63;1.90;;;;;;;;;;4995920;28;20283;-73
2022/07/06 01:29:54;;;;;;;5.80;1.60;;;;;;;;;;4995440;28;20224;-73
2022/07/06 01:32:23;;;;;;;3.23;1.60;;;;;;;;;;4995005;28;20674;-73
2022/07/06 01:34:51;;;;;;;3.37;1.73;;;;;;;;;;4999242;28;20244;-73
2022/07/06 01:37:19;;;;;;;3.67;1.70;;;;;;;;;;5002640;28;20582;-73
2022/07/06 01:39:49;;;;;;;4.87;2.00;;;;;;;;;;4994717;28;21680;-73
2022/07/06 01:42:18;;;;;;;3.60;1.50;;;;;;;;;;4997242;28;20198;-73
2022/07/06 01:44:46;;;;;;;3.10;2.00;;;;;;;;;;4995675;28;20698;-73
2022/07/06 01:47:15;;;;;;;6.00;3.73;;;;;;;;;;4996704;28;20220;-73
2022/07/06 01:49:43;;;;;;;3.27;1.80;;;;;;;;;;4995545;28;20205;-72
2022/07/06 01:52:12;;;;;;;5.80;2.80;;;;;;;;;;4994560;28;20212;-73
2022/07/06 01:54:40;;;;;;;4.57;2.03;;;;;;;;;;4994042;28;20217;-73
2022/07/06 01:57:10;;;;;;;4.27;1.67;;;;;;;;;;4995905;28;20593;-73
2022/07/06 01:59:38;;;;;;;3.70;1.90;;;;;;;;;;4990791;28;20201;-73
2022/07/06 02:02:07;;;;;;;4.80;1.83;;;;;;;;;;4996650;28;20209;-73
2022/07/06 02:04:35;;;;;;;3.47;1.77;;;;;;;;;;4982903;28;20228;-73
2022/07/06 02:07:04;;;;;;;3.30;2.00;;;;;;;;;;4995895;28;20209;-73
2022/07/06 02:09:32;;;;;;;4.43;2.03;;;;;;;;;;4994654;28;20240;-73
2022/07/06 02:12:01;;;;;;;4.60;2.60;;;;;;;;;;4997081;28;20201;-75
2022/07/06 02:14:31;;;;;;;5.90;1.63;;;;;;;;;;4980878;28;20209;-73
2022/07/06 02:16:59;;;;;;;6.73;2.33;;;;;;;;;;4983088;28;20689;-74
2022/07/06 02:19:28;;;;;;;5.00;3.43;;;;;;;;;;4998548;28;20210;-77
2022/07/06 02:21:56;;;;;;;5.07;2.73;;;;;;;;;;5000588;28;20212;-77
2022/07/06 02:24:25;;;;;;;4.93;3.50;;;;;;;;;;5001889;28;20568;-76
2022/07/06 02:26:53;;;;;;;4.23;2.20;;;;;;;;;;5000647;28;20205;-77
2022/07/06 02:29:21;;;;;;;5.73;2.83;;;;;;;;;;5000336;28;20225;-78
2022/07/06 02:31:51;;;;;;;7.73;3.63;;;;;;;;;;4999220;28;20209;-74
2022/07/06 02:34:20;;;;;;;6.00;2.40;;;;;;;;;;4995653;28;20205;-74
2022/07/06 02:36:48;;;;;;;6.40;3.60;;;;;;;;;;4991255;28;20243;-73
2022/07/06 02:39:17;;;;;;;4.00;1.73;;;;;;;;;;4995650;28;20212;-74
2022/07/06 02:41:45;;;;;;;3.87;1.93;;;;;;;;;;4995255;28;20201;-73
2022/07/06 02:44:14;;;;;;;4.63;2.20;;;;;;;;;;4992947;28;20205;-73
2022/07/06 02:46:42;;;;;;;4.40;1.80;;;;;;;;;;4994679;28;20205;-73
2022/07/06 02:49:12;;;;;;;4.00;2.40;;;;;;;;;;4992574;28;20233;-74
2022/07/06 02:51:41;;;;;;;5.70;2.50;;;;;;;;;;4981567;28;20197;-75
2022/07/06 02:54:09;;;;;;;5.53;3.20;;;;;;;;;;4996195;28;20217;-74
2022/07/06 02:56:38;;;;;;;6.50;2.47;;;;;;;;;;4983443;28;20206;-73
2022/07/06 02:59:06;;;;;;;3.57;2.30;;;;;;;;;;4984937;28;20209;-74
2022/07/06 03:01:41;;;;;;;6.40;3.47;;;;;;;;;;4990805;28;20212;-74
2022/07/06 03:04:09;;;;;;;4.33;2.20;;;;;;;;;;4993691;28;20471;-73
2022/07/06 03:06:39;;;;;;;5.90;2.10;;;;;;;;;;5001321;28;20227;-73
2022/07/06 03:09:08;;;;;;;3.77;2.37;;;;;;;;;;4993923;28;20224;-73
2022/07/06 03:11:36;;;;;;;3.80;2.10;;;;;;;;;;4992823;28;20209;-73
2022/07/06 03:14:05;;;;;;;5.10;2.30;;;;;;;;;;4994402;28;20205;-73
2022/07/06 03:16:33;;;;;;;4.50;2.20;;;;;;;;;;4994285;28;20666;-74
2022/07/06 03:19:01;;;;;;;6.17;3.03;;;;;;;;;;4995438;28;20596;-75
2022/07/06 03:21:30;;;;;;;5.93;2.73;;;;;;;;;;4996150;28;20687;-74
2022/07/06 03:24:00;;;;;;;7.30;2.87;;;;;;;;;;4993591;28;20209;-73
2022/07/06 03:26:28;;;;;;;5.27;2.40;;;;;;;;;;4995722;28;20236;-74
2022/07/06 03:28:57;;;;;;;5.33;2.50;;;;;;;;;;4995512;28;20221;-79
2022/07/06 03:31:25;;;;;;;7.40;2.40;;;;;;;;;;4992072;28;20213;-76
2022/07/06 03:33:54;;;;;;;5.93;2.77;;;;;;;;;;4985481;28;20673;-74
2022/07/06 03:36:22;;;;;;;6.93;2.90;;;;;;;;;;4995062;28;20233;-74
2022/07/06 03:38:51;;;;;;;5.80;2.53;;;;;;;;;;4995507;28;20205;-81
2022/07/06 03:41:20;;;;;;;5.87;2.40;;;;;;;;;;4988906;28;20611;-80
2022/07/06 03:43:49;;;;;;;3.37;2.37;;;;;;;;;;4997794;28;20204;-76
2022/07/06 03:46:17;;;;;;;5.93;2.37;;;;;;;;;;4997661;28;20232;-75
2022/07/06 03:48:46;;;;;;;4.03;2.20;;;;;;;;;;4983274;28;20293;-78
2022/07/06 03:51:14;;;;;;;5.67;3.03;;;;;;;;;;4994985;28;20205;-74
2022/07/06 03:53:43;;;;;;;6.73;2.20;;;;;;;;;;4994160;28;20650;-75
2022/07/06 03:56:29;;;;;;;5.50;2.30;;;;;;;;;;4993666;28;20229;-73
2022/07/06 03:59:00;;;;;;;6.47;3.67;;;;;;;;;;4994690;28;20672;-74
2022/07/06 04:01:29;;;;;;;6.93;3.40;;;;;;;;;;4986949;28;20201;-74
2022/07/06 04:03:58;;;;;;;4.33;2.27;;;;;;;;;;4984225;28;20240;-78
2022/07/06 04:06:27;;;;;;;8.47;3.37;;;;;;;;;;4983139;28;20233;-76
2022/07/06 04:08:55;;;;;;;6.53;2.53;;;;;;;;;;4988022;28;20774;-81
2022/07/06 04:11:24;;;;;;;5.87;2.80;;;;;;;;;;4989100;28;20216;-78
2022/07/06 04:13:54;;;;;;;6.97;2.27;;;;;;;;;;4988894;28;20210;-80
2022/07/06 04:16:24;;;;;;;8.73;3.30;;;;;;;;;;4988282;28;20293;-79
2022/07/06 04:18:52;;;;;;;4.07;2.40;;;;;;;;;;4990035;28;20213;-81
2022/07/06 04:21:21;;;;;;;5.83;2.33;;;;;;;;;;4991098;28;20225;-79
2022/07/06 04:23:49;;;;;;;5.40;2.00;;;;;;;;;;4990389;28;20209;-79
2022/07/06 04:26:18;;;;;;;4.87;1.80;;;;;;;;;;4988984;28;20233;-80
2022/07/06 04:28:46;;;;;;;4.57;2.10;;;;;;;;;;4988664;28;20229;-77
2022/07/06 04:31:15;;;;;;;5.70;1.97;;;;;;;;;;4989560;28;20213;-79
2022/07/06 04:33:45;;;;;;;7.03;2.20;;;;;;;;;;4989624;28;20214;-80
2022/07/06 04:36:13;;;;;;;4.33;2.03;;;;;;;;;;4989514;28;20248;-79
2022/07/06 04:38:42;;;;;;;5.97;2.30;;;;;;;;;;4989761;28;20209;-79
2022/07/06 04:41:10;;;;;;;6.37;2.23;;;;;;;;;;4989046;28;20597;-79
2022/07/06 04:43:41;;;;;;;7.97;3.50;;;;;;;;;;4988100;28;20208;-81
2022/07/06 04:46:09;;;;;;;7.43;3.93;;;;;;;;;;4987091;28;20233;-79
2022/07/06 04:48:39;;;;;;;7.00;2.50;;;;;;;;;;4988178;28;20206;-80
2022/07/06 04:51:10;;;;;;;6.57;2.60;;;;;;;;;;4987165;28;20231;-79
2022/07/06 04:53:38;;;;;;;5.27;2.50;;;;;;;;;;4983021;28;20196;-79
2022/07/06 04:56:06;;;;;;;4.43;2.27;;;;;;;;;;4979201;28;20691;-78
2022/07/06 04:58:35;;;;;;;3.80;2.83;;;;;;;;;;4980263;28;20217;-78
2022/07/06 05:01:03;;;;;;;5.73;3.70;;;;;;;;;;4985318;28;20202;-79
2022/07/06 05:03:33;;;;;;;5.33;2.77;;;;;;;;;;4981325;28;20233;-79
2022/07/06 05:06:02;;;;;;;5.33;2.27;;;;;;;;;;4978503;28;20253;-78
2022/07/06 05:08:46;;;;;;;5.47;2.13;;;;;;;;;;4977588;28;20201;-78
2022/07/06 05:11:14;;;;;;;9.03;2.53;;;;;;;;;;4977818;28;20226;-77
2022/07/06 05:13:43;;;;;;;8.23;2.53;;;;;;;;;;4977468;28;20235;-78
2022/07/06 05:16:11;;;;;;;5.50;2.10;;;;;;;;;;4977310;28;20280;-78
2022/07/06 05:18:40;;;;;;;6.00;2.57;;;;;;;;;;4977108;28;20256;-78
2022/07/06 05:21:08;;;;;;;5.40;2.20;;;;;;;;;;4977530;28;20258;-79
2022/07/06 05:23:37;;;;;;;6.90;2.10;;;;;;;;;;4991363;28;20573;-77
2022/07/06 05:26:07;;;;;;;4.77;2.23;;;;;;;;;;4996986;28;20589;-78
2022/07/06 05:28:35;;;;;;;2.97;1.90;;;;;;;;;;4996423;28;20635;-78
2022/07/06 05:31:04;;;;;;;7.83;4.43;;;;;;;;;;4997638;28;20245;-78
2022/07/06 05:33:32;;;;;;;10.77;2.50;;;;;;;;;;4998655;28;20228;-79
2022/07/06 05:36:01;;;;;;;8.70;2.20;;;;;;;;;;4997750;28;20248;-78
2022/07/06 05:38:29;;;;;;;5.87;2.10;;;;;;;;;;4997678;28;20232;-78
2022/07/06 05:40:58;;;;;;;7.27;2.57;;;;;;;;;;4996625;28;20204;-79
2022/07/06 05:43:28;;;;;;;5.10;1.83;;;;;;;;;;4997083;28;20202;-78
2022/07/06 05:45:56;;;;;;;5.33;2.03;;;;;;;;;;4996988;28;20224;-78
2022/07/06 05:51:11;;;;;;;4.50;1.90;;;;;;;;;;4996635;28;20689;-78
2022/07/06 05:53:39;;;;;;;5.07;2.10;;;;;;;;;;4996001;28;20216;-78
2022/07/06 05:56:08;;;;;;;3.67;2.07;;;;;;;;;;4996862;28;20221;-78
2022/07/06 05:58:37;;;;;;;5.77;2.20;;;;;;;;;;4996756;28;20213;-79
2022/07/06 06:01:07;;;;;;;3.83;1.60;;;;;;;;;;4997818;28;20193;-77
2022/07/06 06:03:36;;;;;;;3.33;1.80;;;;;;;;;;4997796;28;20638;-78
2022/07/06 06:06:04;;;;;;;5.13;2.17;;;;;;;;;;4998090;28;20746;-79
2022/07/06 06:08:33;;;;;;;3.63;1.87;;;;;;;;;;4997282;28;20205;-79
2022/07/06 06:11:01;;;;;;;3.50;2.00;;;;;;;;;;4997242;28;20225;-78
2022/07/06 06:13:39;;;;;;;3.73;2.03;;;;;;;;;;4996879;28;20189;-78
2022/07/06 06:16:07;;;;;;;3.93;1.90;;;;;;;;;;4996273;28;20642;-78
2022/07/06 06:18:36;;;;;;;5.83;2.20;;;;;;;;;;4998083;28;20201;-78
2022/07/06 06:21:09;;;;;;;4.97;2.23;;;;;;;;;;4997727;28;20192;-79
2022/07/06 06:23:38;;;;;;;3.77;1.80;;;;;;;;;;4995993;28;20201;-79
2022/07/06 06:26:06;;;;;;;4.80;1.70;;;;;;;;;;4996412;28;20229;-78
2022/07/06 06:28:36;;;;;;;6.77;2.10;;;;;;;;;;4996663;28;20209;-79
2022/07/06 06:31:06;;;;;;;3.37;1.53;;;;;;;;;;4996198;28;20225;-78
2022/07/06 06:33:35;;;;;;;4.73;2.20;;;;;;;;;;4996184;28;20205;-79
2022/07/06 06:36:03;;;;;;;4.90;1.70;;;;;;;;;;4995711;28;20221;-79
2022/07/06 06:38:32;;;;;;;5.80;1.73;;;;;;;;;;4995744;28;20566;-77
2022/07/06 06:41:02;;;;;;;5.20;1.60;;;;;;;;;;4995262;28;20201;-78
2022/07/06 06:43:31;;;;;;;4.10;2.43;;;;;;;;;;4996441;28;20673;-78
2022/07/06 06:45:59;;;;;;;5.33;1.67;;;;;;;;;;4995536;28;20721;-77
2022/07/06 06:48:31;;;;;;;3.07;1.50;;;;;;;;;;4996407;28;20216;-79
2022/07/06 06:51:00;;;;;;;3.50;2.23;;;;;;;;;;4996002;28;20629;-79
2022/07/06 06:53:28;;;;;;;5.17;2.60;;;;;;;;;;4995159;28;20205;-78
2022/07/06 06:56:00;;;;;;;4.43;1.60;;;;;;;;;;4995630;28;20229;-78
2022/07/06 06:58:28;;;;;;;5.20;1.67;;;;;;;;;;4995702;28;20681;-78
2022/07/06 07:01:17;;;;;;;2.93;1.20;;;;;;;;;;4995743;28;20201;-79
2022/07/06 07:03:47;;;;;;;7.07;1.73;;;;;;;;;;4994769;28;20267;-78
2022/07/06 07:06:15;;;;;;;9.10;2.33;;;;;;;;;;4994894;28;20600;-78
2022/07/06 07:08:44;;;;;;;4.17;1.50;;;;;;;;;;4995962;28;20209;-78
2022/07/06 07:11:12;;;;;;;5.93;1.93;;;;;;;;;;4995010;28;20264;-77
2022/07/06 07:13:41;;;;;;;6.50;1.70;;;;;;;;;;4995153;28;20209;-78
2022/07/06 07:16:10;;;;;;;3.80;1.50;;;;;;;;;;4995410;28;20741;-77
2022/07/06 07:18:38;;;;;;;2.27;1.40;;;;;;;;;;4996750;28;20340;-77
2022/07/06 07:21:08;;;;;;;5.97;2.03;;;;;;;;;;4995780;28;20243;-79
2022/07/06 07:23:37;;;;;;;5.07;2.77;;;;;;;;;;4996121;28;20208;-78
2022/07/06 07:26:06;;;;;;;4.83;1.87;;;;;;;;;;4994874;28;20229;-78
2022/07/06 07:28:34;;;;;;;4.20;1.47;;;;;;;;;;4993915;28;20573;-78
2022/07/06 07:31:03;;;;;;;4.47;1.60;;;;;;;;;;4995649;28;20236;-79
2022/07/06 07:33:31;;;;;;;5.87;1.33;;;;;;;;;;4995973;28;20212;-78
2022/07/06 07:36:00;;;;;;;7.20;1.70;;;;;;;;;;4995030;28;20690;-79
2022/07/06 07:38:30;;;;;;;4.03;1.40;;;;;;;;;;4995318;28;20217;-78
2022/07/06 07:40:58;;;;;;;3.43;1.23;;;;;;;;;;4995750;28;20205;-79
2022/07/06 07:43:27;;;;;;;5.97;1.50;;;;;;;;;;4995385;28;20569;-79
2022/07/06 07:45:56;;;;;;;2.83;1.17;;;;;;;;;;4995482;28;20225;-78
2022/07/06 07:48:24;;;;;;;2.75;1.50;;;;;;;;;;4995025;28;20212;-78
2022/07/06 07:50:54;;;;;;;2.83;1.10;;;;;;;;;;4993868;28;20229;-78
2022/07/06 07:53:22;;;;;;;4.88;1.23;;;;;;;;;;4995202;28;20240;-79
2022/07/06 07:55:52;;;;;;;4.67;1.50;;;;;;;;;;4996240;28;20236;-78
2022/07/06 07:58:21;;;;;;;4.43;1.30;;;;;;;;;;4995326;28;20222;-79
2022/07/06 08:00:49;;;;;;;5.10;1.50;;;;;;;;;;4996766;28;20614;-78
2022/07/06 08:03:18;;;;;;;2.45;1.05;;;;;;;;;;4995332;28;20216;-79
2022/07/06 08:05:47;;;;;;;3.10;1.48;;;;;;;;;;4995399;28;20233;-78
2022/07/06 08:08:16;;;;;;;5.35;1.42;;;;;;;;;;4995228;28;20205;-78
2022/07/06 08:10:44;;;;;;;2.58;1.10;;;;;;;;;;4995617;28;20381;-78
2022/07/06 08:13:34;;;;;;;2.80;1.50;;;;;;;;;;4994380;28;20252;-79
2022/07/06 08:16:03;;;;;;;2.45;1.20;;;;;;;;;;4994811;28;20655;-78
2022/07/06 08:18:32;;;;;;;3.22;1.50;;;;;;;;;;4994863;28;20244;-77
2022/07/06 08:21:01;;;;;;;3.65;1.15;;;;;;;;;;4997450;28;20239;-79
2022/07/06 08:23:49;;;;;;;2.92;1.60;;;;;;;;;;4994186;28;20264;-79
2022/07/06 08:26:18;;;;;;;3.25;0.90;;;;;;;;;;4993782;28;20725;-79
2022/07/06 08:28:48;;;;;;;2.67;1.10;;;;;;;;;;4994124;28;20208;-77
2022/07/06 08:31:16;;;;;;;3.30;0.93;;;;;;;;;;4994778;28;20209;-78
2022/07/06 08:34:05;;;;;;;1.20;0.80;;;;;;;;;;4994240;28;20213;-79
2022/07/06 08:36:34;;;;;;;3.30;1.98;;;;;;;;;;4994179;28;20229;-78
2022/07/06 08:39:02;;;;;;;3.25;1.10;;;;;;;;;;4993551;28;20212;-78
2022/07/06 08:41:31;;;;;;;1.90;0.80;;;;;;;;;;4994388;28;20658;-78
2022/07/06 08:44:15;;;;;;;2.45;1.20;;;;;;;;;;4994322;28;20202;-79
2022/07/06 08:46:45;;;;;;;4.13;1.50;;;;;;;;;;4996136;28;20205;-79
2022/07/06 08:49:14;;;;;;;4.53;1.17;;;;;;;;;;4994323;28;20205;-78
2022/07/06 08:51:43;;;;;;;4.10;1.33;;;;;;;;;;4994406;28;20219;-78
2022/07/06 08:54:12;;;;;;;3.40;1.10;;;;;;;;;;4994882;28;20209;-77
2022/07/06 08:56:41;;;;;;;5.55;1.23;;;;;;;;;;4995098;28;20214;-79
2022/07/06 08:59:17;;;;;;;3.92;0.90;;;;;;;;;;4993509;28;20212;-79
2022/07/06 09:01:49;;;;;;;2.03;0.60;;;;;;;;;;4995261;28;20189;-78
2022/07/06 09:04:18;;;;;;;3.03;0.77;;;;;;;;;;4997332;28;20217;-78
2022/07/06 09:06:48;;;;;;;9.57;1.05;;;;;;;;;;5000444;28;20209;-78
2022/07/06 09:09:20;;;;;;;2.00;0.88;;;;;;;;;;4998532;28;20284;-78
2022/07/06 09:11:48;;;;;;;5.35;3.00;;;;;;;;;;4996987;28;20216;-78
2022/07/06 09:14:20;;;;;;;1.45;1.00;;;;;;;;;;4997111;28;20212;-77
2022/07/06 09:16:53;;;;;;;2.38;0.85;;;;;;;;;;4997195;28;20189;-78
2022/07/06 09:19:21;;;;;;;2.83;0.70;;;;;;;;;;4996895;28;20227;-78
2022/07/06 09:21:50;;;;;;;3.40;0.93;;;;;;;;;;4997166;28;20216;-78
2022/07/06 09:24:18;;;;;;;5.30;2.78;;;;;;;;;;4997122;28;20208;-78
2022/07/06 09:26:48;;;;;;;2.42;1.27;;;;;;;;;;4996295;28;20212;-78
2022/07/06 09:29:17;;;;;;;10.02;5.22;;;;;;;;;;4996555;28;20209;-78
2022/07/06 09:31:58;;;;;;;3.60;1.15;;;;;;;;;;4997150;28;20244;-78
2022/07/06 09:34:42;;;;;;;4.72;4.32;;;;;;;;;;4997237;28;20193;-78
2022/07/06 09:37:10;;;;;;;4.30;1.40;;;;;;;;;;4997238;28;20657;-73
2022/07/06 09:39:39;;;;;;;2.90;2.10;;;;;;;;;;4996918;28;20212;-74
2022/07/06 09:42:09;;;;;;;5.43;2.17;;;;;;;;;;4996323;28;20661;-76
2022/07/06 09:44:38;;;;;;;5.40;0.93;;;;;;;;;;4996076;28;20236;-77
2022/07/06 09:47:12;;;;;;;2.67;0.88;;;;;;;;;;4977189;28;20206;-76
2022/07/06 09:49:41;;;;;;;3.65;0.90;;;;;;;;;;4991709;28;20689;-76
2022/07/06 09:52:10;;;;;;;2.92;0.88;;;;;;;;;;4995711;28;20233;-77
2022/07/06 09:54:40;;;;;;;4.60;1.00;;;;;;;;;;4993278;28;20312;-76
2022/07/06 09:57:09;;;;;;;2.10;1.10;;;;;;;;;;4995786;28;20685;-77
2022/07/06 09:59:38;;;;;;;2.72;0.75;;;;;;;;;;4996087;28;20581;-77
2022/07/06 10:02:08;;;;;;;0.85;0.63;;;;;;;;;;4988284;28;20669;-77
2022/07/06 10:04:37;;;;;;;3.15;1.20;;;;;;;;;;4995578;28;20610;-77
2022/07/06 10:07:05;;;;;;;4.28;1.88;;;;;;;;;;4995663;28;20209;-76
2022/07/06 10:09:34;;;;;;;2.65;1.27;;;;;;;;;;4995532;28;20267;-76
2022/07/06 10:12:04;;;;;;;2.20;0.70;;;;;;;;;;4994981;28;20747;-75
2022/07/06 10:14:33;;;;;;;2.17;0.90;;;;;;;;;;4994607;28;20221;-74
2022/07/06 10:17:03;;;;;;;1.75;0.90;;;;;;;;;;4994585;28;20227;-73
2022/07/06 10:19:34;;;;;;;1.80;0.70;;;;;;;;;;4995235;28;20212;-74
2022/07/06 10:22:03;;;;;;;3.88;0.70;;;;;;;;;;4995368;28;20208;-73
2022/07/06 10:24:39;;;;;;;1.55;0.80;;;;;;;;;;4995316;28;20626;-74
2022/07/06 10:27:09;;;;;;;1.80;1.00;;;;;;;;;;4992026;28;20215;-74
2022/07/06 10:29:37;;;;;;;3.70;1.08;;;;;;;;;;4980579;28;20260;-74
2022/07/06 10:32:08;;;;;;;6.60;1.13;;;;;;;;;;4992018;28;20297;-75
2022/07/06 10:34:38;;;;;;;6.10;1.20;;;;;;;;;;4994894;28;20645;-73
2022/07/06 10:37:06;;;;;;;5.78;1.50;;;;;;;;;;4993769;28;20204;-73
2022/07/06 10:42:41;;;;;;;6.30;1.35;;;;;;;;;;4991197;28;20212;-72
2022/07/06 10:45:10;;;;;;;3.63;1.50;;;;;;;;;;4993542;28;20258;-72
2022/07/06 10:47:38;;;;;;;2.22;0.77;;;;;;;;;;4993108;28;20201;-73
2022/07/06 10:50:08;;;;;;;0.93;0.60;;;;;;;;;;4994656;28;20580;-73
2022/07/06 10:52:51;;;;;;;3.33;1.52;;;;;;;;;;4989318;28;20577;-72
2022/07/06 10:55:30;;;;;;;3.90;1.40;;;;;;;;;;4994628;28;20606;-72
2022/07/06 10:58:00;;;;;;;2.03;0.57;;;;;;;;;;4992340;28;20216;-72
2022/07/06 11:00:44;;;;;;;4.72;0.75;;;;;;;;;;4979333;28;20238;-73
2022/07/06 11:03:27;;;;;;;4.68;1.55;;;;;;;;;;4983158;28;20217;-73
2022/07/06 11:06:01;;;;;;;1.60;0.80;;;;;;;;;;4988544;28;20283;-71
2022/07/06 11:08:45;;;;;;;2.55;1.00;;;;;;;;;;4991183;28;20205;-72
2022/07/06 11:11:16;;;;;;;1.80;0.85;;;;;;;;;;4996690;28;20637;-72
2022/07/06 11:13:49;;;;;;;2.15;0.80;;;;;;;;;;4994759;28;20297;-73
2022/07/06 11:16:18;;;;;;;1.98;0.80;;;;;;;;;;4982973;28;20225;-73
2022/07/06 11:18:50;;;;;;;2.40;0.90;;;;;;;;;;5003852;28;20255;-74
2022/07/06 11:21:21;;;;;;;3.08;0.90;;;;;;;;;;4983076;28;20208;-72
2022/07/06 11:23:50;;;;;;;2.28;0.88;;;;;;;;;;4986364;28;20623;-75
2022/07/06 11:26:19;;;;;;;2.78;0.90;;;;;;;;;;4982462;28;20228;-75
2022/07/06 11:28:49;;;;;;;2.38;1.08;;;;;;;;;;4993722;28;20638;-75
2022/07/06 11:31:17;;;;;;;1.40;0.90;;;;;;;;;;4988023;28;20221;-75
2022/07/06 11:33:47;;;;;;;3.03;0.90;;;;;;;;;;4994391;28;20373;-75
2022/07/06 11:36:17;;;;;;;4.50;0.90;;;;;;;;;;4993764;28;20221;-75
2022/07/06 11:38:47;;;;;;;2.65;0.77;;;;;;;;;;4994021;28;20275;-74
2022/07/06 11:41:16;;;;;;;1.42;0.68;;;;;;;;;;4993839;28;20208;-75
2022/07/06 11:43:45;;;;;;;1.80;0.73;;;;;;;;;;4994280;28;20201;-75
2022/07/06 11:46:24;;;;;;;1.17;0.80;;;;;;;;;;4992870;28;20233;-75
2022/07/06 11:48:53;;;;;;;4.43;4.05;;;;;;;;;;4993667;28;20571;-75
2022/07/06 11:51:22;;;;;;;3.38;1.10;;;;;;;;;;4993466;28;20204;-75
2022/07/06 11:53:54;;;;;;;2.75;0.80;;;;;;;;;;4995147;28;20221;-74
2022/07/06 11:56:25;;;;;;;3.58;1.20;;;;;;;;;;4994046;28;20228;-75
2022/07/06 11:58:54;;;;;;;1.50;0.70;;;;;;;;;;4993555;28;20194;-76
2022/07/06 12:01:23;;;;;;;0.70;0.70;;;;;;;;;;4992634;28;20197;-75
2022/07/06 12:03:52;;;;;;;5.00;1.02;;;;;;;;;;4993137;28;20211;-75
2022/07/06 12:06:22;;;;;;;1.70;0.60;;;;;;;;;;4976953;28;20233;-75
2022/07/06 12:08:52;;;;;;;3.22;0.77;;;;;;;;;;4974515;28;20678;-75
2022/07/06 12:11:22;;;;;;;2.38;0.68;;;;;;;;;;4974802;28;20186;-74
2022/07/06 12:13:51;;;;;;;1.90;0.80;;;;;;;;;;4974667;28;20233;-75
2022/07/06 12:16:19;;;;;;;8.13;1.40;;;;;;;;;;4990086;28;20229;-75
2022/07/06 12:18:52;;;;;;;5.05;1.00;;;;;;;;;;4994214;28;20196;-75
2022/07/06 12:21:22;;;;;;;1.65;0.82;;;;;;;;;;4994252;28;20205;-75
2022/07/06 12:23:53;;;;;;;2.50;1.00;;;;;;;;;;4994725;28;20218;-75
2022/07/06 12:26:24;;;;;;;1.73;0.80;;;;;;;;;;4994264;28;20631;-75
2022/07/06 12:29:05;;;;;;;2.10;0.70;;;;;;;;;;4993559;28;20201;-75
2022/07/06 12:31:34;;;;;;;3.55;0.90;;;;;;;;;;4993309;28;20211;-75
2022/07/06 12:34:03;;;;;;;1.52;0.60;;;;;;;;;;4992519;28;20232;-74
2022/07/06 12:36:32;;;;;;;1.08;0.52;;;;;;;;;;4995096;28;20228;-75
2022/07/06 12:39:02;;;;;;;1.50;0.77;;;;;;;;;;4996952;28;20248;-75
2022/07/06 12:41:34;;;;;;;1.45;0.60;;;;;;;;;;4998047;28;20205;-74
2022/07/06 12:44:12;;;;;;;2.08;0.60;;;;;;;;;;4997824;28;20205;-75
2022/07/06 12:46:41;;;;;;;3.65;0.88;;;;;;;;;;4994000;28;20201;-75
2022/07/06 12:49:14;;;;;;;3.42;0.60;;;;;;;;;;4996757;28;20205;-75
2022/07/06 12:51:56;;;;;;;2.70;1.20;;;;;;;;;;4996592;28;20562;-74
2022/07/06 12:54:28;;;;;;;2.65;0.70;;;;;;;;;;4645509;28;10001330;-75
2022/07/06 12:57:07;;;;;;;1.58;0.63;;;;;;;;;;4995167;28;20209;-74
2022/07/06 12:59:37;;;;;;;2.80;0.80;;;;;;;;;;4994828;28;20220;-74
2022/07/06 13:02:19;;;;;;;1.77;0.70;;;;;;;;;;4994094;28;20197;-75
2022/07/06 13:04:58;;;;;;;2.53;1.00;;;;;;;;;;4994834;28;20233;-73
2022/07/06 13:07:27;;;;;;;2.78;1.00;;;;;;;;;;4994557;28;20256;-74
2022/07/06 13:09:57;;;;;;;2.88;0.70;;;;;;;;;;4994560;28;20205;-74
2022/07/06 13:12:26;;;;;;;3.35;1.08;;;;;;;;;;4994741;28;20205;-74
2022/07/06 13:14:58;;;;;;;4.13;0.80;;;;;;;;;;4993578;28;20256;-74
2022/07/06 13:17:26;;;;;;;4.07;1.20;;;;;;;;;;4993802;28;20674;-74
2022/07/06 13:19:56;;;;;;;1.00;0.50;;;;;;;;;;4993890;28;20197;-74
2022/07/06 13:22:24;;;;;;;2.50;0.60;;;;;;;;;;4993957;28;20209;-75
2022/07/06 13:24:53;;;;;;;2.83;0.80;;;;;;;;;;4993757;28;20224;-75
2022/07/06 13:27:23;;;;;;;2.00;1.10;;;;;;;;;;4991623;28;20213;-73
2022/07/06 13:29:52;;;;;;;2.55;0.73;;;;;;;;;;4994171;28;20267;-74
2022/07/06 13:32:21;;;;;;;2.67;0.60;;;;;;;;;;4977310;28;20260;-74
2022/07/06 13:34:50;;;;;;;0.85;0.63;;;;;;;;;;4982009;28;20749;-74
2022/07/06 13:37:20;;;;;;;1.45;0.52;;;;;;;;;;4992413;28;20233;-75
2022/07/06 13:39:49;;;;;;;2.08;0.70;;;;;;;;;;4994421;28;20204;-74
2022/07/06 13:42:17;;;;;;;0.80;0.60;;;;;;;;;;4994038;28;20209;-74
2022/07/06 13:44:50;;;;;;;1.45;0.70;;;;;;;;;;4993577;28;20717;-74
2022/07/06 13:47:21;;;;;;;4.57;1.23;;;;;;;;;;4993103;28;20213;-74
2022/07/06 13:49:49;;;;;;;6.18;5.45;;;;;;;;;;4993056;28;20209;-74
2022/07/06 13:52:18;;;;;;;2.20;1.67;;;;;;;;;;4993646;28;20296;-74
2022/07/06 13:54:46;;;;;;;5.78;3.30;;;;;;;;;;4990963;28;20686;-74
2022/07/06 13:57:15;;;;;;;1.55;0.50;;;;;;;;;;4992941;28;20221;-74
2022/07/06 13:59:45;;;;;;;1.60;0.55;;;;;;;;;;4993573;28;20215;-74
2022/07/06 14:02:15;;;;;;;1.40;0.50;;;;;;;;;;4992413;28;20204;-74
2022/07/06 14:04:44;;;;;;;1.40;0.55;;;;;;;;;;4993272;28;20224;-75
2022/07/06 14:07:12;;;;;;;0.85;0.60;;;;;;;;;;4989442;28;20215;-75
2022/07/06 14:09:51;;;;;;;1.25;0.55;;;;;;;;;;4984374;28;20206;-75
2022/07/06 14:12:23;;;;;;;2.38;0.50;;;;;;;;;;4993352;28;20204;-74
2022/07/06 14:14:52;;;;;;;1.85;0.47;;;;;;;;;;4974120;28;20695;-75
2022/07/06 14:17:22;;;;;;;1.38;0.57;;;;;;;;;;4983487;28;20630;-74
2022/07/06 14:19:53;;;;;;;2.63;0.60;;;;;;;;;;4994694;28;20201;-74
2022/07/06 14:22:22;;;;;;;1.95;0.50;;;;;;;;;;4995161;28;20647;-74
2022/07/06 14:24:50;;;;;;;1.85;0.70;;;;;;;;;;4994911;28;20257;-74
2022/07/06 14:27:19;;;;;;;0.95;0.60;;;;;;;;;;4995077;28;20213;-74
2022/07/06 14:29:47;;;;;;;1.23;0.50;;;;;;;;;;4992333;28;20201;-74
2022/07/06 14:32:16;;;;;;;1.88;0.70;;;;;;;;;;4993524;28;20205;-74
2022/07/06 14:34:46;;;;;;;1.08;0.52;;;;;;;;;;4994258;28;20686;-73
2022/07/06 14:37:14;;;;;;;4.57;0.95;;;;;;;;;;4990048;28;20234;-73
2022/07/06 14:39:48;;;;;;;2.05;0.75;;;;;;;;;;4982764;28;20264;-74
2022/07/06 14:42:17;;;;;;;2.83;0.70;;;;;;;;;;4992957;28;20292;-73
2022/07/06 14:44:45;;;;;;;1.98;0.80;;;;;;;;;;4994554;28;20225;-73
2022/07/06 14:47:28;;;;;;;2.65;0.60;;;;;;;;;;4988263;28;20571;-73
2022/07/06 14:49:58;;;;;;;1.27;0.45;;;;;;;;;;4994207;28;20212;-74
2022/07/06 14:52:26;;;;;;;2.88;0.77;;;;;;;;;;4992872;28;20267;-74
2022/07/06 14:54:56;;;;;;;1.48;1.15;;;;;;;;;;4994424;28;20221;-74
2022/07/06 14:57:25;;;;;;;2.35;1.00;;;;;;;;;;4994862;28;20205;-73
2022/07/06 14:59:53;;;;;;;3.33;0.80;;;;;;;;;;4993810;28;20724;-74
2022/07/06 15:02:22;;;;;;;2.05;0.60;;;;;;;;;;4994047;28;20209;-74
2022/07/06 15:04:50;;;;;;;2.67;1.00;;;;;;;;;;4998492;28;20232;-74
2022/07/06 15:07:20;;;;;;;1.90;0.68;;;;;;;;;;4990406;28;20205;-73